Flight Track Log - Related Links

Times and Time Zones

All times are in EDT time to prevent confusion due to time zone crossing. See the N82423 flight status page for this flight to view local times or setup timezone preferences in your user account.

Time Position Orientation Groundspeed Altitude Reporting Facility
EDT Latitude Longitude Course Direction KTS MPH feet Rate Location/Type
Tue 06:00:07 PM 44.4247 -88.1011 58° Northeast 93 107 3,000  Level Chicago Center
Tue 06:01:09 PM 44.4183 -88.0642 104° East 96 110 3,500 532 Climbing Chicago Center
Tue 06:02:11 PM 44.4111 -88.0281 106° East 97 112 4,100 629 Climbing Chicago Center
Tue 06:03:13 PM 44.4036 -87.9864 104° East 105 121 4,800 677 Climbing Chicago Center
Tue 06:04:00 PM 44.3228 -87.9050 111° Southeast  Level Estimated
Tue 06:04:15 PM 44.3931 -87.9381 107° East 110 127 5,500  Level Chicago Center
Tue 06:05:00 PM 44.3426 -87.8597 58° Northeast  Level FlightAware Approximate
Tue 06:05:23 PM 44.3678 -87.9158 148° Southeast 106 122 6,100  Level Minneapolis Center
Tue 06:06:25 PM 44.3489 -87.8872 133° Southeast 103 119 6,600 532 Climbing Minneapolis Center
Tue 06:07:27 PM 44.3233 -87.8533 137° Southeast 105 121 7,200 532 Climbing Minneapolis Center
Tue 06:08:29 PM 44.3000 -87.8222 136° Southeast 111 128 7,700 484 Climbing Minneapolis Center
Tue 06:09:31 PM 44.2750 -87.7894 137° Southeast 119 137 8,200 435 Climbing Minneapolis Center
Tue 06:10:33 PM 44.2483 -87.7594 141° Southeast 123 142 8,600 435 Climbing Minneapolis Center
Tue 06:11:35 PM 44.2222 -87.7281 139° Southeast 122 140 9,100 484 Climbing Minneapolis Center
Tue 06:12:37 PM 44.1958 -87.6858 131° Southeast 124 143 9,600 435 Climbing Minneapolis Center
Tue 06:13:39 PM 44.1719 -87.6489 132° Southeast 127 146 10,000 384 Climbing Minneapolis Center
Tue 06:14:42 PM 44.1494 -87.6100 129° Southeast 129 148 10,400 384 Climbing Minneapolis Center
Tue 06:15:44 PM 44.1244 -87.5750 135° Southeast 129 148 10,800 242 Climbing Minneapolis Center
Tue 06:16:46 PM 44.0972 -87.5428 140° Southeast 129 148 10,900 132 Climbing Minneapolis Center
Tue 06:18:00 PM 44.0594 -87.4931 137° Southeast 139 160 11,100 88 Climbing Minneapolis Center
Tue 06:19:02 PM 44.0322 -87.4525 133° Southeast 142 163 11,100 -48 Level Minneapolis Center
Tue 06:20:04 PM 44.0017 -87.4164 140° Southeast 143 165 11,000 -48 Descending Minneapolis Center
Tue 06:21:06 PM 43.9686 -87.3808 142° Southeast 148 170 11,000  Level Minneapolis Center
Tue 06:22:09 PM 43.9403 -87.3417 135° Southeast 145 167 11,000  Level Minneapolis Center
Tue 06:23:11 PM 43.9058 -87.2972 137° Southeast 145 167 11,000  Level Minneapolis Center
Tue 06:24:13 PM 43.8764 -87.2564 135° Southeast 148 170 11,000  Level Minneapolis Center
Tue 06:24:57 PM 43.8550 -87.2253 134° Southeast 150 173 11,000  Level Chicago Center
Tue 06:25:59 PM 43.8269 -87.1872 136° Southeast 144 166 11,000  Level Chicago Center
Tue 06:27:02 PM 43.8000 -87.1450 131° Southeast 146 168 11,000  Level Chicago Center
Tue 06:28:04 PM 43.7719 -87.1047 134° Southeast 146 168 11,000 48 Level Chicago Center
Tue 06:29:06 PM 43.7400 -87.0703 142° Southeast 146 168 11,100 48 Climbing Chicago Center
Tue 06:30:08 PM 43.7086 -87.0206 131° Southeast 144 166 11,100 -48 Level Chicago Center
Tue 06:31:10 PM 43.6822 -86.9764 130° Southeast 148 170 11,000 -48 Descending Chicago Center
Tue 06:32:12 PM 43.6511 -86.9408 140° Southeast 146 168 11,000  Level Chicago Center
Tue 06:33:14 PM 43.6192 -86.9050 141° Southeast 147 169 11,000  Level Chicago Center
Tue 06:34:16 PM 43.5900 -86.8650 135° Southeast 147 169 11,000  Level Chicago Center
Tue 06:35:18 PM 43.5619 -86.8267 135° Southeast 143 165 11,000  Level Chicago Center
Tue 06:36:20 PM 43.5286 -86.7761 132° Southeast 148 170 11,000  Level Chicago Center
Tue 06:37:23 PM 43.5003 -86.7375 135° Southeast 145 167 11,000 48 Level Chicago Center
Tue 06:38:25 PM 43.4656 -86.7122 152° Southeast 143 165 11,100 48 Climbing Chicago Center
Tue 06:39:27 PM 43.4353 -86.6750 138° Southeast 146 168 11,100 -48 Level Chicago Center
Tue 06:40:29 PM 43.4064 -86.6353 135° Southeast 147 169 11,000  Descending Chicago Center
Tue 06:41:31 PM 43.3822 -86.5878 125° Southeast 151 174 11,100 48 Climbing Chicago Center
Tue 06:42:33 PM 43.3456 -86.5453 140° Southeast 146 168 11,100  Level Chicago Center
Tue 06:43:35 PM 43.3125 -86.5131 145° Southeast 145 167 11,100  Level Chicago Center
Tue 06:44:37 PM 43.2831 -86.4744 136° Southeast 147 169 11,100  Level Chicago Center
Tue 06:45:39 PM 43.2519 -86.4397 141° Southeast 146 168 11,100  Level Chicago Center
Tue 06:46:42 PM 43.2225 -86.4014 137° Southeast 146 168 11,100 -48 Level Chicago Center
Tue 06:47:44 PM 43.1883 -86.3517 133° Southeast 150 173 11,000 -48 Descending Chicago Center
Tue 06:48:46 PM 43.1575 -86.3131 138° Southeast 151 174 11,000  Level Chicago Center
Tue 06:49:48 PM 43.1267 -86.2778 140° Southeast 147 169 11,000  Level Chicago Center
Tue 06:50:50 PM 43.0958 -86.2400 138° Southeast 149 171 11,000  Level Chicago Center
Tue 06:51:52 PM 43.0650 -86.2014 138° Southeast 150 173 11,000  Level Chicago Center
Tue 06:52:54 PM 43.0303 -86.1544 135° Southeast 148 170 11,000  Level Chicago Center
Tue 06:53:56 PM 43.0039 -86.1106 129° Southeast 151 174 11,000 -48 Level Chicago Center
Tue 06:54:59 PM 42.9750 -86.0711 135° Southeast 150 173 10,900 -48 Descending Chicago Center
Tue 06:56:01 PM 42.9458 -86.0311 135° Southeast 151 174 10,900  Level Chicago Center
Tue 06:57:03 PM 42.9175 -85.9908 134° Southeast 149 171 10,900 -48 Level Chicago Center
Tue 06:58:05 PM 42.8811 -85.9447 137° Southeast 149 171 10,800 -290 Descending Chicago Center
Tue 06:59:07 PM 42.8478 -85.9142 146° Southeast 146 168 10,300 -532 Descending Chicago Center
Tue 07:00:09 PM 42.8150 -85.8808 143° Southeast 147 169 9,700 -532 Descending Chicago Center
Tue 07:01:11 PM 42.7825 -85.8461 142° Southeast 148 170 9,200 -532 Descending Chicago Center
Tue 07:02:13 PM 42.7503 -85.8147 144° Southeast 145 167 8,600 -581 Descending Chicago Center
Tue 07:03:15 PM 42.7172 -85.7692 135° Southeast 142 163 8,000 -528 Descending Chicago Center
Tue 07:04:18 PM 42.6933 -85.7244 126° Southeast 146 168 7,500 -576 Descending Chicago Center
Tue 07:05:20 PM 42.6647 -85.6864 136° Southeast 145 167 6,800 -774 Descending Chicago Center
Tue 07:06:22 PM 42.6358 -85.6586 145° Southeast 133 153 5,900 -823 Descending Chicago Center
Tue 07:07:24 PM 42.6089 -85.6258 138° Southeast 130 150 5,100 -484 Descending Chicago Center
Tue 07:08:26 PM 42.5775 -85.5875 138° Southeast 127 146 4,900 -97 Descending Chicago Center
Tue 07:09:28 PM 42.5539 -85.5497 130° Southeast 130 150 4,900 48 Level Chicago Center
Tue 07:10:30 PM 42.5339 -85.5100 124° Southeast 128 147 5,000 48 Climbing Chicago Center
Tue 07:11:32 PM 42.5136 -85.4686 124° Southeast 131 151 5,000 -194 Level Chicago Center
Tue 07:12:34 PM 42.4894 -85.4283 129° Southeast 136 157 4,600 -339 Descending Chicago Center
Tue 07:13:36 PM 42.4664 -85.3847 126° Southeast 141 162 4,300 -480 Descending Chicago Center
Tue 07:14:39 PM 42.4364 -85.3372 131° Southeast 139 160 3,600 -576 Descending Chicago Center
Tue 07:15:41 PM 42.4086 -85.3025 137° Southeast 136 157 3,100 -532 Descending Chicago Center
Tue 07:16:43 PM 42.3817 -85.2706 139° Southeast 132 152 2,500 -484 Descending Chicago Center
Tue 07:17:45 PM 42.3547 -85.2350 136° Southeast 134 154 2,100 -484 Descending Chicago Center
Tue 07:18:47 PM 42.3319 -85.2239 160° South 122 140 1,500 -581 Descending Chicago Center
Tue 07:20:00 PM 42.3000 -85.2500 160° South  Level FlightAware Approximate

Login

Don't have an account? Register now (free) for customized features, flight alerts, and more!